createdAt,value
2023-02-16T00:00:58.504Z,96652.03
2023-02-16T00:02:01.400Z,96661.72
2023-02-16T00:03:03.297Z,96661.72
2023-02-16T00:04:17.174Z,96657.44
2023-02-16T00:05:25.338Z,96652.03
2023-02-16T00:06:30.488Z,96655.53
2023-02-16T00:07:32.315Z,96665.53
2023-02-16T00:08:35.164Z,96652.41
2023-02-16T00:09:37.299Z,96650.50
2023-02-16T00:10:40.819Z,96658.56
2023-02-16T00:12:01.700Z,96653.19
2023-02-16T00:13:42.523Z,96658.56
2023-02-16T00:14:45.413Z,96653.97
2023-02-16T00:15:47.810Z,96654.75
2023-02-16T00:16:51.099Z,96653.19
2023-02-16T00:17:54.162Z,96652.41
2023-02-16T00:18:57.053Z,96649.25
2023-02-16T00:19:58.882Z,96644.97
2023-02-16T00:21:02.120Z,96638.34
2023-02-16T00:22:08.108Z,96646.13
2023-02-16T00:23:10.087Z,96649.59
2023-02-16T00:24:13.235Z,96646.88
2023-02-16T00:25:15.197Z,96634.56
2023-02-16T00:26:20.333Z,96637.25
2023-02-16T00:27:22.591Z,96641.06
2023-02-16T00:28:26.886Z,96638.34
2023-02-16T00:29:32.100Z,96639.13
2023-02-16T00:30:34.353Z,96634.56
2023-02-16T00:31:37.367Z,96638.34
2023-02-16T00:32:39.413Z,96633.75
2023-02-16T00:33:42.307Z,96634.56
2023-02-16T00:34:44.255Z,96633.75
2023-02-16T00:35:47.365Z,96624.88
2023-02-16T00:36:51.104Z,96635.66
2023-02-16T00:37:55.327Z,96632.97
2023-02-16T00:38:58.910Z,96632.19
2023-02-16T00:40:02.013Z,96630.59
2023-02-16T00:41:04.938Z,96624.44
2023-02-16T00:42:21.732Z,96626.03
2023-02-16T00:43:26.257Z,96624.88
2023-02-16T00:44:34.985Z,96627.56
2023-02-16T00:45:38.010Z,96622.19
2023-02-16T00:46:40.906Z,96626.78
2023-02-16T00:47:46.868Z,96620.63
2023-02-16T00:48:49.719Z,96620.63
2023-02-16T00:49:55.196Z,96626.03
2023-02-16T00:50:57.082Z,96619.03
2023-02-16T00:51:59.982Z,96619.03
2023-02-16T00:53:03.208Z,96619.03
2023-02-16T00:54:06.160Z,96622.88
2023-02-16T00:55:10.448Z,96625.56
2023-02-16T00:56:18.848Z,96625.56
2023-02-16T00:57:20.982Z,96623.66
2023-02-16T00:58:27.594Z,96629.81
2023-02-16T00:59:29.528Z,96625.22
2023-02-16T01:00:36.280Z,96619.81
2023-02-16T01:01:38.397Z,96626.03
2023-02-16T01:02:41.849Z,96624.09
2023-02-16T01:03:44.708Z,96626.03
2023-02-16T01:04:47.716Z,96629.50
2023-02-16T01:06:11.600Z,96625.22
2023-02-16T01:07:32.750Z,96622.88
2023-02-16T01:08:54.704Z,96628.25
2023-02-16T01:10:15.598Z,96636.34
2023-02-16T01:11:19.662Z,96635.56
2023-02-16T01:12:22.102Z,96631.28
2023-02-16T01:13:27.485Z,96636.69
2023-02-16T01:14:33.045Z,96641.28
2023-02-16T01:15:36.261Z,96640.50
2023-02-16T01:16:41.342Z,96642.41
2023-02-16T01:17:43.341Z,96640.50
2023-02-16T01:18:47.580Z,96639.69
2023-02-16T01:19:49.432Z,96645.09
2023-02-16T01:20:52.658Z,96636.22
2023-02-16T01:21:54.555Z,96638.13
2023-02-16T01:22:57.582Z,96641.97
2023-02-16T01:24:00.864Z,96641.53
2023-02-16T01:25:03.822Z,96636.13
2023-02-16T01:26:07.163Z,96639.94
2023-02-16T01:27:14.167Z,96637.25
2023-02-16T01:28:22.639Z,96638.38
2023-02-16T01:29:25.548Z,96638.38
2023-02-16T01:30:27.767Z,96639.47
2023-02-16T01:31:30.936Z,96639.47
2023-02-16T01:32:33.339Z,96636.78
2023-02-16T01:33:36.172Z,96644.09
2023-02-16T01:34:39.389Z,96641.41
2023-02-16T01:35:41.800Z,96636.34
2023-02-16T01:36:46.298Z,96633.63
2023-02-16T01:37:50.738Z,96641.72
2023-02-16T01:38:54.378Z,96640.16
2023-02-16T01:39:57.611Z,96636.34
2023-02-16T01:41:09.200Z,96632.88
2023-02-16T01:42:25.962Z,96640.16
2023-02-16T01:43:44.379Z,96627.38
2023-02-16T01:44:51.034Z,96625.34
2023-02-16T01:46:00.500Z,96622.00
2023-02-16T01:47:08.160Z,96628.94
2023-02-16T01:48:21.113Z,96627.38
2023-02-16T01:49:24.127Z,96630.06
2023-02-16T01:50:28.874Z,96631.97
2023-02-16T01:51:37.165Z,96630.06
2023-02-16T01:52:43.148Z,96623.09
2023-02-16T01:53:52.147Z,96626.56
2023-02-16T01:55:02.893Z,96632.31
2023-02-16T01:56:18.987Z,96626.94
2023-02-16T01:57:30.905Z,96629.63
2023-02-16T01:58:42.004Z,96631.53
2023-02-16T02:00:04.900Z,96630.72
2023-02-16T02:01:38.446Z,96619.94
2023-02-16T02:02:45.697Z,96619.94
2023-02-16T02:04:06.222Z,96623.78
2023-02-16T02:05:37.893Z,96615.69
2023-02-16T02:06:42.912Z,96612.56
2023-02-16T02:07:52.623Z,96618.72
2023-02-16T02:08:59.425Z,96611.78
2023-02-16T02:10:11.231Z,96614.81
2023-02-16T02:11:18.051Z,96617.50
2023-02-16T02:12:36.020Z,96607.03
2023-02-16T02:13:42.837Z,96611.31
2023-02-16T02:14:48.088Z,96611.31
2023-02-16T02:15:51.725Z,96607.84
2023-02-16T02:16:56.988Z,96608.97
2023-02-16T02:17:59.931Z,96603.56
2023-02-16T02:19:02.949Z,96607.41
2023-02-16T02:20:13.949Z,96607.41
2023-02-16T02:22:07.491Z,96605.81
2023-02-16T02:23:32.239Z,96604.25
2023-02-16T02:25:13.248Z,96606.94
2023-02-16T02:26:50.053Z,96606.94
2023-02-16T02:27:57.080Z,96604.59
2023-02-16T02:29:12.581Z,96610.75
2023-02-16T02:30:39.594Z,96609.66
2023-02-16T02:31:50.131Z,96608.06
2023-02-16T02:33:22.050Z,96605.38
2023-02-16T02:34:32.586Z,96605.72
2023-02-16T02:35:48.976Z,96603.34
2023-02-16T02:37:00.517Z,96600.66
2023-02-16T02:38:13.557Z,96596.41
2023-02-16T02:39:26.433Z,96591.03
2023-02-16T02:40:43.264Z,96598.28
2023-02-16T02:42:05.718Z,96591.81
2023-02-16T02:43:35.545Z,96588.31
2023-02-16T02:44:45.134Z,96591.03
2023-02-16T02:45:53.448Z,96589.44
2023-02-16T02:46:56.242Z,96587.53
2023-02-16T02:47:59.173Z,96588.66
2023-02-16T02:49:01.317Z,96588.66
2023-02-16T02:50:04.296Z,96590.56
2023-02-16T02:51:29.890Z,96584.41
2023-02-16T02:52:41.450Z,96585.50
2023-02-16T02:53:47.275Z,96592.81
2023-02-16T02:55:08.552Z,96588.53
2023-02-16T02:56:33.419Z,96586.97
2023-02-16T02:57:58.973Z,96586.19
2023-02-16T02:59:23.256Z,96585.41
2023-02-16T03:00:44.028Z,96586.19
2023-02-16T03:01:52.645Z,96590.81
2023-02-16T03:03:00.850Z,96585.41
2023-02-16T03:04:06.253Z,96597.28
2023-02-16T03:05:13.086Z,96588.88
2023-02-16T03:06:19.753Z,96590.81
2023-02-16T03:07:44.945Z,96584.59
2023-02-16T03:08:53.810Z,96590.81
2023-02-16T03:10:19.185Z,96589.22
2023-02-16T03:11:42.424Z,96579.91
2023-02-16T03:12:46.321Z,96586.06
2023-02-16T03:13:53.117Z,96584.50
2023-02-16T03:15:00.355Z,96582.59
2023-02-16T03:16:06.011Z,96591.47
2023-02-16T03:17:29.870Z,96579.13
2023-02-16T03:18:54.308Z,96579.91
2023-02-16T03:20:16.732Z,96586.84
2023-02-16T03:21:37.434Z,96587.66
2023-02-16T03:22:58.571Z,96587.66
2023-02-16T03:24:21.279Z,96592.69
2023-02-16T03:25:45.221Z,96602.34
2023-02-16T03:27:09.375Z,96600.44
2023-02-16T03:28:32.293Z,96598.53
2023-02-16T03:29:38.317Z,96604.69
2023-02-16T03:30:41.915Z,96611.53
2023-02-16T03:31:46.961Z,96603.81
2023-02-16T03:32:49.501Z,96608.38
2023-02-16T03:33:55.174Z,96613.00
2023-02-16T03:34:57.183Z,96603.69
2023-02-16T03:36:00.874Z,96604.81
2023-02-16T03:37:03.973Z,96604.00
2023-02-16T03:38:07.469Z,96600.53
2023-02-16T03:39:10.653Z,96602.47
2023-02-16T03:40:29.605Z,96598.19
2023-02-16T03:41:33.187Z,96600.91
2023-02-16T03:42:36.089Z,96604.38
2023-02-16T03:43:39.340Z,96609.75
2023-02-16T03:44:42.219Z,96604.38
2023-02-16T03:45:45.635Z,96608.97
2023-02-16T03:46:49.501Z,96602.00
2023-02-16T03:47:51.465Z,96609.28
2023-02-16T03:48:54.315Z,96605.81
2023-02-16T03:49:56.246Z,96605.81
2023-02-16T03:50:59.137Z,96609.63
2023-02-16T03:52:01.002Z,96604.25
2023-02-16T03:53:07.802Z,96600.78
2023-02-16T03:54:10.006Z,96606.16
2023-02-16T03:55:12.903Z,96597.28
2023-02-16T03:56:14.826Z,96608.06
2023-02-16T03:57:17.802Z,96600.00
2023-02-16T03:58:22.300Z,96603.78
2023-02-16T03:59:26.809Z,96612.66
2023-02-16T04:00:28.678Z,96615.69
2023-02-16T04:01:31.600Z,96606.47
2023-02-16T04:02:33.463Z,96606.47
2023-02-16T04:03:36.436Z,96609.16
2023-02-16T04:04:39.535Z,96604.91
2023-02-16T04:05:41.836Z,96606.47
2023-02-16T04:06:44.714Z,96609.53
2023-02-16T04:07:46.967Z,96608.72
2023-02-16T04:08:50.818Z,96601.78
2023-02-16T04:09:52.703Z,96605.59
2023-02-16T04:10:57.475Z,96604.00
2023-02-16T04:12:17.893Z,96604.00
2023-02-16T04:13:19.982Z,96600.53
2023-02-16T04:14:22.034Z,96614.31
2023-02-16T04:15:28.679Z,96610.06
2023-02-16T04:16:30.663Z,96608.50
2023-02-16T04:17:33.553Z,96605.78
2023-02-16T04:18:35.452Z,96610.06
2023-02-16T04:19:40.283Z,96608.50
2023-02-16T04:20:43.572Z,96602.31
2023-02-16T04:21:45.451Z,96606.94
2023-02-16T04:22:49.067Z,96606.94
2023-02-16T04:23:51.015Z,96608.03
2023-02-16T04:24:53.860Z,96602.66
2023-02-16T04:25:55.716Z,96611.84
2023-02-16T04:26:58.612Z,96606.78
2023-02-16T04:28:00.864Z,96606.03
2023-02-16T04:29:03.798Z,96605.25
2023-02-16T04:30:08.070Z,96608.72
2023-02-16T04:31:12.467Z,96605.25
2023-02-16T04:32:14.673Z,96612.19
2023-02-16T04:33:17.572Z,96611.41
2023-02-16T04:34:19.714Z,96607.59
2023-02-16T04:35:22.712Z,96607.59
2023-02-16T04:36:24.569Z,96606.03
2023-02-16T04:37:27.505Z,96618.38
2023-02-16T04:38:29.391Z,96613.00
2023-02-16T04:39:32.346Z,96609.16
2023-02-16T04:40:34.293Z,96608.72
2023-02-16T04:41:37.189Z,96610.63
2023-02-16T04:42:39.179Z,96616.00
2023-02-16T04:43:41.995Z,96608.25
2023-02-16T04:44:43.869Z,96611.72
2023-02-16T04:45:46.793Z,96604.78
2023-02-16T04:46:50.156Z,96605.56
2023-02-16T04:47:53.081Z,96606.69
2023-02-16T04:48:55.031Z,96617.47
2023-02-16T04:49:57.847Z,96617.47
2023-02-16T04:50:59.750Z,96621.25
2023-02-16T04:52:03.962Z,96620.47
2023-02-16T04:53:06.914Z,96615.09
2023-02-16T04:54:08.779Z,96615.09
2023-02-16T04:55:11.696Z,96611.63
2023-02-16T04:56:13.712Z,96607.81
2023-02-16T04:57:17.634Z,96613.19
2023-02-16T04:58:19.552Z,96611.63
2023-02-16T04:59:22.420Z,96611.63
2023-02-16T05:00:24.427Z,96607.03
2023-02-16T05:01:29.232Z,96609.72
2023-02-16T05:02:33.542Z,96613.19
2023-02-16T05:03:36.443Z,96615.88
2023-02-16T05:04:38.493Z,96615.09
2023-02-16T05:05:41.571Z,96615.09
2023-02-16T05:06:43.727Z,96615.09
2023-02-16T05:07:46.588Z,96613.19
2023-02-16T05:08:48.620Z,96615.09
2023-02-16T05:09:51.589Z,96609.72
2023-02-16T05:11:08.390Z,96615.88
2023-02-16T05:12:29.630Z,96611.31
2023-02-16T05:13:50.073Z,96619.03
2023-02-16T05:14:53.039Z,96617.47
2023-02-16T05:15:55.118Z,96618.25
2023-02-16T05:16:58.052Z,96617.47
2023-02-16T05:18:02.333Z,96614.78
2023-02-16T05:19:04.778Z,96619.38
2023-02-16T05:20:08.459Z,96616.69
2023-02-16T05:21:25.242Z,96618.56
2023-02-16T05:22:32.361Z,96616.22
2023-02-16T05:23:34.305Z,96608.47
2023-02-16T05:24:38.066Z,96621.94
2023-02-16T05:25:40.008Z,96623.06
2023-02-16T05:26:45.474Z,96615.00
2023-02-16T05:27:47.359Z,96615.00
2023-02-16T05:28:50.218Z,96621.94
2023-02-16T05:29:52.450Z,96627.31
2023-02-16T05:30:55.375Z,96621.16
2023-02-16T05:31:57.911Z,96616.56
2023-02-16T05:33:02.239Z,96621.94
2023-02-16T05:34:04.206Z,96616.56
2023-02-16T05:35:07.440Z,96621.16
2023-02-16T05:36:09.973Z,96631.13
2023-02-16T05:37:13.691Z,96630.00
2023-02-16T05:38:15.686Z,96625.75
2023-02-16T05:39:18.695Z,96625.75
2023-02-16T05:40:20.711Z,96632.69
2023-02-16T05:41:26.598Z,96632.38
2023-02-16T05:42:28.614Z,96629.69
2023-02-16T05:43:31.540Z,96629.34
2023-02-16T05:44:33.633Z,96637.41
2023-02-16T05:45:36.507Z,96635.84
2023-02-16T05:46:40.080Z,96635.84
2023-02-16T05:47:43.702Z,96640.44
2023-02-16T05:48:48.569Z,96642.34
2023-02-16T05:49:51.500Z,96634.25
2023-02-16T05:50:54.630Z,96638.09
2023-02-16T05:51:57.610Z,96644.59
2023-02-16T05:52:59.976Z,96637.31
2023-02-16T05:54:03.433Z,96641.91
2023-02-16T05:55:06.170Z,96635.72
2023-02-16T05:56:09.641Z,96637.63
2023-02-16T05:57:11.559Z,96639.53
2023-02-16T05:58:14.451Z,96635.25
2023-02-16T05:59:16.828Z,96643.34
2023-02-16T06:00:20.254Z,96637.84
2023-02-16T06:01:22.167Z,96642.25
2023-02-16T06:02:25.107Z,96651.56
2023-02-16T06:03:27.169Z,96646.16
2023-02-16T06:04:32.663Z,96643.84
2023-02-16T06:05:34.586Z,96642.25
2023-02-16T06:06:38.377Z,96642.59
2023-02-16T06:07:40.258Z,96651.31
2023-02-16T06:08:43.262Z,96641.69
2023-02-16T06:09:45.220Z,96646.63
2023-02-16T06:10:50.138Z,96640.78
2023-02-16T06:11:52.089Z,96642.69
2023-02-16T06:12:55.078Z,96648.38
2023-02-16T06:13:59.228Z,96648.72
2023-02-16T06:15:02.267Z,96653.31
2023-02-16T06:16:04.834Z,96656.00
2023-02-16T06:17:07.773Z,96653.31
2023-02-16T06:18:11.344Z,96660.28
2023-02-16T06:19:15.653Z,96654.09
2023-02-16T06:20:19.380Z,96648.72
2023-02-16T06:21:22.481Z,96654.91
2023-02-16T06:22:25.323Z,96660.28
2023-02-16T06:23:27.190Z,96654.91
2023-02-16T06:24:30.126Z,96654.91
2023-02-16T06:25:32.220Z,96658.69
2023-02-16T06:26:35.120Z,96653.31
2023-02-16T06:27:37.026Z,96668.69
2023-02-16T06:28:39.889Z,96660.94
2023-02-16T06:29:42.716Z,96655.53
2023-02-16T06:30:44.850Z,96663.63
2023-02-16T06:31:48.112Z,96667.91
2023-02-16T06:32:50.233Z,96667.13
2023-02-16T06:33:53.593Z,96660.16
2023-02-16T06:34:55.452Z,96654.00
2023-02-16T06:35:59.639Z,96667.91
2023-02-16T06:37:02.544Z,96667.91
2023-02-16T06:38:04.469Z,96669.47
2023-02-16T06:39:07.468Z,96666.78
2023-02-16T06:40:10.396Z,96667.22
2023-02-16T06:41:31.175Z,96669.91
2023-02-16T06:42:34.252Z,96663.44
2023-02-16T06:43:36.221Z,96659.16
2023-02-16T06:44:44.213Z,96669.91
2023-02-16T06:45:46.726Z,96674.19
2023-02-16T06:46:50.061Z,96678.44
2023-02-16T06:47:52.009Z,96671.16
2023-02-16T06:48:55.071Z,96682.84
2023-02-16T06:49:57.927Z,96669.50
2023-02-16T06:51:01.506Z,96674.22
2023-02-16T06:52:04.557Z,96669.28
2023-02-16T06:53:06.699Z,96679.72
2023-02-16T06:54:09.580Z,96681.75
2023-02-16T06:55:11.505Z,96683.00
2023-02-16T06:56:14.487Z,96682.31
2023-02-16T06:57:16.390Z,96678.16
2023-02-16T06:58:19.321Z,96687.94
2023-02-16T06:59:22.204Z,96685.69
2023-02-16T07:00:24.319Z,96679.22
2023-02-16T07:01:27.222Z,96679.22
2023-02-16T07:02:29.231Z,96678.53
2023-02-16T07:03:32.291Z,96680.09
2023-02-16T07:04:34.223Z,96681.34
2023-02-16T07:05:37.853Z,96684.47
2023-02-16T07:06:42.264Z,96686.38
2023-02-16T07:07:44.155Z,96685.28
2023-02-16T07:08:47.191Z,96691.13
2023-02-16T07:09:50.035Z,96691.53
2023-02-16T07:10:54.904Z,96684.28
2023-02-16T07:11:58.354Z,96685.84
2023-02-16T07:13:00.214Z,96685.50
2023-02-16T07:14:03.203Z,96673.16
2023-02-16T07:15:05.631Z,96691.22
2023-02-16T07:16:08.954Z,96687.75
2023-02-16T07:17:11.127Z,96688.84
2023-02-16T07:18:14.042Z,96695.38
2023-02-16T07:19:15.918Z,96683.81
2023-02-16T07:20:19.353Z,96691.13
2023-02-16T07:21:22.193Z,96691.91
2023-02-16T07:22:25.565Z,96693.81
2023-02-16T07:23:28.640Z,96686.50
2023-02-16T07:24:30.520Z,96696.50
2023-02-16T07:25:35.293Z,96692.22
2023-02-16T07:26:39.547Z,96699.19
2023-02-16T07:27:41.452Z,96694.25
2023-02-16T07:28:45.108Z,96695.06
2023-02-16T07:29:47.008Z,96694.38
2023-02-16T07:30:50.765Z,96693.59
2023-02-16T07:31:53.487Z,96687.44
2023-02-16T07:32:56.536Z,96692.00
2023-02-16T07:33:58.378Z,96691.34
2023-02-16T07:35:01.353Z,96687.53
2023-02-16T07:36:03.844Z,96691.44
2023-02-16T07:37:06.762Z,96691.44
2023-02-16T07:38:10.324Z,96694.59
2023-02-16T07:39:13.225Z,96700.75
2023-02-16T07:40:15.141Z,96698.53
2023-02-16T07:41:18.136Z,96701.22
2023-02-16T07:42:20.618Z,96701.69
2023-02-16T07:43:23.797Z,96697.88
2023-02-16T07:44:26.654Z,96704.81
2023-02-16T07:45:28.905Z,96706.38
2023-02-16T07:46:33.380Z,96707.97
2023-02-16T07:47:36.027Z,96706.38
2023-02-16T07:48:38.884Z,96706.38
2023-02-16T07:49:41.460Z,96711.78
2023-02-16T07:50:44.408Z,96715.59
2023-02-16T07:51:47.401Z,96709.44
2023-02-16T07:52:49.323Z,96705.97
2023-02-16T07:53:54.125Z,96706.38
2023-02-16T07:54:57.085Z,96712.22
2023-02-16T07:56:00.156Z,96706.19
2023-02-16T07:57:03.073Z,96708.19
2023-02-16T07:58:04.965Z,96701.81
2023-02-16T07:59:07.955Z,96711.13
2023-02-16T08:00:11.941Z,96712.69
2023-02-16T08:01:15.978Z,96710.44
2023-02-16T08:02:19.799Z,96711.56
2023-02-16T08:03:21.928Z,96714.25
2023-02-16T08:04:24.959Z,96721.22
2023-02-16T08:05:26.977Z,96710.88
2023-02-16T08:06:29.932Z,96707.88
2023-02-16T08:07:32.886Z,96713.38
2023-02-16T08:08:35.600Z,96717.31
2023-02-16T08:09:40.019Z,96721.09
2023-02-16T08:10:42.120Z,96716.94
2023-02-16T08:11:45.183Z,96721.22
2023-02-16T08:12:47.153Z,96716.53
2023-02-16T08:13:50.888Z,96723.81
2023-02-16T08:14:52.833Z,96716.16
2023-02-16T08:15:55.789Z,96725.03
2023-02-16T08:16:57.694Z,96721.22
2023-02-16T08:18:00.593Z,96719.31
2023-02-16T08:19:04.751Z,96723.25
2023-02-16T08:20:10.913Z,96727.06
2023-02-16T08:21:15.855Z,96723.69
2023-02-16T08:22:18.750Z,96723.00
2023-02-16T08:23:21.698Z,96731.56
2023-02-16T08:24:25.052Z,96727.38
2023-02-16T08:25:30.283Z,96724.81
2023-02-16T08:26:37.252Z,96719.88
2023-02-16T08:27:40.113Z,96719.53
2023-02-16T08:28:46.068Z,96725.72
2023-02-16T08:29:49.243Z,96723.47
2023-02-16T08:30:51.292Z,96725.03
2023-02-16T08:31:56.662Z,96723.13
2023-02-16T08:33:01.858Z,96729.31
2023-02-16T08:34:07.006Z,96722.78
2023-02-16T08:35:10.096Z,96727.41
2023-02-16T08:36:17.248Z,96722.00
2023-02-16T08:37:20.122Z,96734.34
2023-02-16T08:38:22.786Z,96727.03
2023-02-16T08:39:27.979Z,96725.94
2023-02-16T08:40:31.482Z,96731.78
2023-02-16T08:41:36.642Z,96727.94
2023-02-16T08:42:39.583Z,96729.09
2023-02-16T08:43:41.658Z,96725.25
2023-02-16T08:44:44.680Z,96715.25
2023-02-16T08:45:47.781Z,96726.84
2023-02-16T08:46:52.962Z,96722.22
2023-02-16T08:47:55.014Z,96723.00
2023-02-16T08:49:00.166Z,96727.28
2023-02-16T08:50:03.234Z,96724.59
2023-02-16T08:51:07.251Z,96720.31
2023-02-16T08:52:10.193Z,96720.75
2023-02-16T08:53:12.181Z,96726.16
2023-02-16T08:54:18.607Z,96722.31
2023-02-16T08:55:21.021Z,96721.19
2023-02-16T08:56:25.691Z,96722.75
2023-02-16T08:57:28.618Z,96720.06
2023-02-16T08:58:31.260Z,96724.00
2023-02-16T08:59:34.915Z,96721.75
2023-02-16T09:00:38.618Z,96722.19
2023-02-16T09:01:41.605Z,96721.84
2023-02-16T09:02:44.695Z,96717.69
2023-02-16T09:03:48.444Z,96717.38
2023-02-16T09:04:50.709Z,96723.22
2023-02-16T09:05:54.899Z,96722.84
2023-02-16T09:06:59.406Z,96726.78
2023-02-16T09:08:01.409Z,96720.28
2023-02-16T09:09:05.560Z,96727.22
2023-02-16T09:10:08.904Z,96716.88
2023-02-16T09:11:14.259Z,96720.03
2023-02-16T09:12:18.552Z,96723.16
2023-02-16T09:13:20.506Z,96716.63
2023-02-16T09:14:23.395Z,96726.31
2023-02-16T09:15:25.419Z,96724.06
2023-02-16T09:16:29.319Z,96720.66
2023-02-16T09:17:32.489Z,96717.28
2023-02-16T09:18:34.460Z,96723.56
2023-02-16T09:19:37.395Z,96719.84
2023-02-16T09:20:41.237Z,96719.97
2023-02-16T09:21:45.114Z,96724.66
2023-02-16T09:22:47.564Z,96724.78
2023-02-16T09:23:52.377Z,96717.91
2023-02-16T09:24:55.313Z,96721.47
2023-02-16T09:26:00.122Z,96725.41
2023-02-16T09:27:04.149Z,96715.47
2023-02-16T09:28:09.512Z,96723.69
2023-02-16T09:29:14.483Z,96728.38
2023-02-16T09:30:18.664Z,96726.13
2023-02-16T09:31:25.805Z,96728.25
2023-02-16T09:32:30.415Z,96729.91
2023-02-16T09:33:32.364Z,96722.69
2023-02-16T09:34:35.341Z,96731.25
2023-02-16T09:35:39.125Z,96735.94
2023-02-16T09:36:42.293Z,96728.38
2023-02-16T09:37:45.294Z,96734.75
2023-02-16T09:38:49.101Z,96731.00
2023-02-16T09:39:52.066Z,96727.25
2023-02-16T09:40:54.236Z,96732.41
2023-02-16T09:42:04.892Z,96719.78
2023-02-16T09:43:18.511Z,96725.69
2023-02-16T09:44:25.786Z,96730.41
2023-02-16T09:45:29.745Z,96730.50
2023-02-16T09:46:34.908Z,96729.38
2023-02-16T09:47:39.906Z,96720.91
2023-02-16T09:48:47.217Z,96723.25
2023-02-16T09:49:51.257Z,96717.16
2023-02-16T09:50:55.370Z,96721.88
2023-02-16T09:52:04.117Z,96716.19
2023-02-16T09:53:09.817Z,96725.19
2023-02-16T09:54:23.600Z,96722.22
2023-02-16T09:55:34.240Z,96722.66
2023-02-16T09:56:41.951Z,96727.69
2023-02-16T09:57:56.985Z,96718.78
2023-02-16T09:59:06.841Z,96721.59
2023-02-16T10:00:23.433Z,96717.84
2023-02-16T10:01:32.475Z,96725.69
2023-02-16T10:02:44.521Z,96716.50
2023-02-16T10:04:00.841Z,96721.19
2023-02-16T10:05:17.750Z,96719.72
2023-02-16T10:06:32.121Z,96728.19
2023-02-16T10:07:43.760Z,96721.56
2023-02-16T10:08:51.234Z,96724.28
2023-02-16T10:09:55.972Z,96720.75
2023-02-16T10:11:28.768Z,96722.34
2023-02-16T10:12:38.419Z,96715.09
2023-02-16T10:13:47.063Z,96715.88
2023-02-16T10:14:55.350Z,96722.84
2023-02-16T10:15:59.366Z,96719.03
2023-02-16T10:17:09.072Z,96715.25
2023-02-16T10:18:22.041Z,96718.47
2023-02-16T10:19:28.512Z,96719.34
2023-02-16T10:20:34.450Z,96715.47
2023-02-16T10:21:36.574Z,96730.66
2023-02-16T10:22:44.899Z,96728.75
2023-02-16T10:23:53.498Z,96730.31
2023-02-16T10:25:01.690Z,96728.03
2023-02-16T10:26:14.257Z,96728.03
2023-02-16T10:27:17.455Z,96727.69
2023-02-16T10:28:23.068Z,96722.72
2023-02-16T10:29:27.490Z,96723.94
2023-02-16T10:30:32.649Z,96722.78
2023-02-16T10:31:41.773Z,96728.63
2023-02-16T10:32:56.376Z,96725.19
2023-02-16T10:34:10.445Z,96720.16
2023-02-16T10:35:17.316Z,96724.41
2023-02-16T10:36:30.311Z,96728.28
2023-02-16T10:37:52.640Z,96723.22
2023-02-16T10:39:02.095Z,96722.78
2023-02-16T10:40:22.898Z,96722.72
2023-02-16T10:41:32.947Z,96722.72
2023-02-16T10:42:43.858Z,96718.06
2023-02-16T10:43:54.008Z,96715.38
2023-02-16T10:45:00.879Z,96717.34
2023-02-16T10:46:06.614Z,96711.59
2023-02-16T10:47:31.236Z,96719.78
2023-02-16T10:48:34.479Z,96712.09
2023-02-16T10:49:37.238Z,96713.31
2023-02-16T10:50:42.975Z,96711.41
2023-02-16T10:51:48.951Z,96716.81
2023-02-16T10:52:55.327Z,96714.53
2023-02-16T10:54:03.156Z,96710.69
2023-02-16T10:55:07.008Z,96717.66
2023-02-16T10:56:33.836Z,96713.81
2023-02-16T10:57:37.247Z,96704.13
2023-02-16T10:58:42.015Z,96703.41
2023-02-16T10:59:46.945Z,96708.84
2023-02-16T11:00:54.337Z,96710.03
2023-02-16T11:02:00.631Z,96706.56
2023-02-16T11:03:04.851Z,96710.03
2023-02-16T11:04:07.081Z,96722.09
2023-02-16T11:05:31.146Z,96711.25
2023-02-16T11:06:36.407Z,96714.41
2023-02-16T11:07:54.420Z,96709.41
2023-02-16T11:09:00.007Z,96716.09
2023-02-16T11:10:21.300Z,96708.13
2023-02-16T11:11:26.266Z,96698.56
2023-02-16T11:12:31.037Z,96699.06
2023-02-16T11:13:37.423Z,96702.25
2023-02-16T11:14:40.025Z,96693.41
2023-02-16T11:15:43.032Z,96698.47
2023-02-16T11:16:45.821Z,96685.69
2023-02-16T11:17:52.571Z,96691.53
2023-02-16T11:19:00.891Z,96685.47
2023-02-16T11:20:09.528Z,96686.25
2023-02-16T11:21:12.329Z,96684.69
2023-02-16T11:22:27.999Z,96686.31
2023-02-16T11:23:32.403Z,96682.09
2023-02-16T11:24:37.346Z,96678.66
2023-02-16T11:25:40.537Z,96669.41
2023-02-16T11:26:43.651Z,96677.88
2023-02-16T11:27:51.243Z,96674.06
2023-02-16T11:28:54.850Z,96681.81
2023-02-16T11:30:22.242Z,96677.16
2023-02-16T11:31:32.259Z,96672.53
2023-02-16T11:32:34.423Z,96674.53
2023-02-16T11:33:40.301Z,96677.66
2023-02-16T11:34:45.702Z,96674.22
2023-02-16T11:35:48.065Z,96667.66
2023-02-16T11:36:51.060Z,96667.34
2023-02-16T11:37:54.075Z,96668.91
2023-02-16T11:38:59.333Z,96678.50
2023-02-16T11:40:07.313Z,96665.72
2023-02-16T11:41:10.695Z,96671.88
2023-02-16T11:42:23.556Z,96658.78
2023-02-16T11:43:30.525Z,96662.66
2023-02-16T11:44:35.794Z,96667.03
2023-02-16T11:45:39.714Z,96659.03
2023-02-16T11:46:42.770Z,96657.94
2023-02-16T11:47:44.758Z,96658.34
2023-02-16T11:48:49.356Z,96662.25
2023-02-16T11:50:18.873Z,96660.72
2023-02-16T11:51:34.983Z,96664.28
2023-02-16T11:52:38.217Z,96664.31
2023-02-16T11:53:42.313Z,96650.03
2023-02-16T11:54:49.944Z,96652.44
2023-02-16T11:55:53.594Z,96645.50
2023-02-16T11:57:09.315Z,96650.13
2023-02-16T11:58:18.617Z,96645.06
2023-02-16T11:59:22.819Z,96646.94
2023-02-16T12:00:26.788Z,96641.84
2023-02-16T12:01:44.154Z,96634.84
2023-02-16T12:03:08.013Z,96639.06
2023-02-16T12:04:25.075Z,96639.53
2023-02-16T12:05:40.404Z,96637.66
2023-02-16T12:06:55.476Z,96631.09
2023-02-16T12:08:11.812Z,96626.81
2023-02-16T12:09:24.356Z,96627.63
2023-02-16T12:10:35.104Z,96630.72
2023-02-16T12:11:49.518Z,96623.00
2023-02-16T12:13:00.787Z,96623.06
2023-02-16T12:14:29.228Z,96618.41
2023-02-16T12:15:40.265Z,96616.91
2023-02-16T12:16:50.786Z,96620.00
2023-02-16T12:18:10.652Z,96620.81
2023-02-16T12:19:26.581Z,96614.66
2023-02-16T12:20:41.231Z,96618.47
2023-02-16T12:21:47.387Z,96608.34
2023-02-16T12:22:55.133Z,96609.53
2023-02-16T12:24:13.840Z,96613.03
2023-02-16T12:25:31.013Z,96611.84
2023-02-16T12:26:42.591Z,96605.22
2023-02-16T12:27:51.575Z,96600.91
2023-02-16T12:29:05.862Z,96607.53
2023-02-16T12:30:23.580Z,96606.44
2023-02-16T12:31:35.072Z,96598.72
2023-02-16T12:32:47.852Z,96606.16
2023-02-16T12:34:00.558Z,96604.66
2023-02-16T12:35:19.038Z,96598.94
2023-02-16T12:36:33.982Z,96600.13
2023-02-16T12:37:45.691Z,96601.31
2023-02-16T12:38:57.264Z,96592.09
2023-02-16T12:40:10.450Z,96595.72
2023-02-16T12:41:27.213Z,96601.16
2023-02-16T12:42:59.259Z,96594.59
2023-02-16T12:44:07.078Z,96590.72
2023-02-16T12:45:15.618Z,96589.16
2023-02-16T12:46:24.409Z,96592.66
2023-02-16T12:47:32.900Z,96582.94
2023-02-16T12:48:41.782Z,96591.13
2023-02-16T12:49:53.307Z,96598.50
2023-02-16T12:50:58.681Z,96583.34
2023-02-16T12:52:07.505Z,96585.69
2023-02-16T12:53:20.266Z,96587.25
2023-02-16T12:54:29.491Z,96579.53
2023-02-16T12:55:36.778Z,96583.41
2023-02-16T12:56:43.217Z,96581.13
2023-02-16T12:57:53.691Z,96582.69
2023-02-16T12:59:06.662Z,96585.03
2023-02-16T13:00:20.790Z,96580.44
2023-02-16T13:01:29.550Z,96573.41
2023-02-16T13:02:36.635Z,96570.69
2023-02-16T13:03:43.307Z,96571.81